Time;durP1;ratioP1;P1;durP2;ratioP2;P2;SDS_P1;SDS_P2;PMS_P1;PMS_P2;Temp;Humidity;BMP_temperature;BMP_pressure;BME280_temperature;BME280_humidity;BME280_pressure;Samples;Min_cycle;Max_cycle;Signal;HPM_P1;HPM_P2
2022/06/03 00:02:00;;;;;;;0.10;0.10;;;;;;;;;;5053293;28;20047;-88
2022/06/03 00:04:29;;;;;;;0.00;0.00;;;;;;;;;;5074626;28;20111;-90
2022/06/03 00:07:06;;;;;;;0.10;0.10;;;;;;;;;;5073673;28;20040;-88
2022/06/03 00:09:55;;;;;;;0.10;0.10;;;;;;;;;;5071262;28;20052;-87
2022/06/03 00:12:27;;;;;;;0.00;0.00;;;;;;;;;;5072775;28;20463;-87
2022/06/03 00:15:04;;;;;;;0.10;0.10;;;;;;;;;;5071753;28;20043;-87
2022/06/03 00:17:30;;;;;;;0.10;0.10;;;;;;;;;;5072835;28;20126;-89
2022/06/03 00:20:06;;;;;;;0.00;0.00;;;;;;;;;;5088450;28;20038;-88
2022/06/03 00:22:51;;;;;;;0.00;0.00;;;;;;;;;;5089708;28;20093;-87
2022/06/03 00:25:29;;;;;;;0.10;0.10;;;;;;;;;;5089043;28;20047;-87
2022/06/03 00:27:56;;;;;;;0.10;0.10;;;;;;;;;;5074167;28;20035;-87
2022/06/03 00:30:22;;;;;;;0.10;0.10;;;;;;;;;;5087695;28;20043;-87
2022/06/03 00:33:02;;;;;;;0.10;0.10;;;;;;;;;;5074089;28;20109;-87
2022/06/03 00:35:40;;;;;;;0.10;0.10;;;;;;;;;;5093097;28;20043;-88
2022/06/03 00:38:37;;;;;;;0.10;0.10;;;;;;;;;;5077001;28;20047;-89
2022/06/03 00:41:12;;;;;;;0.10;0.10;;;;;;;;;;5093346;28;20459;-87
2022/06/03 00:43:57;;;;;;;0.10;0.10;;;;;;;;;;5092251;28;20073;-88
2022/06/03 00:46:35;;;;;;;0.10;0.10;;;;;;;;;;5094310;27;20521;-87
2022/06/03 00:49:25;;;;;;;0.00;0.00;;;;;;;;;;5078153;28;20036;-87
2022/06/03 00:51:57;;;;;;;0.10;0.10;;;;;;;;;;5075268;28;20079;-87
2022/06/03 00:54:23;;;;;;;0.20;0.20;;;;;;;;;;5076872;28;20048;-88
2022/06/03 00:56:52;;;;;;;0.10;0.10;;;;;;;;;;5093569;28;20048;-88
2022/06/03 00:59:48;;;;;;;0.10;0.10;;;;;;;;;;5094499;28;20458;-90
2022/06/03 01:02:35;;;;;;;0.10;0.10;;;;;;;;;;5018507;28;20042;-89
2022/06/03 01:05:20;;;;;;;0.00;0.00;;;;;;;;;;5106618;28;20048;-88
2022/06/03 01:08:05;;;;;;;0.10;0.10;;;;;;;;;;5093112;28;20391;-88
2022/06/03 01:10:50;;;;;;;0.10;0.10;;;;;;;;;;5076928;28;20122;-88
2022/06/03 01:13:40;;;;;;;0.10;0.10;;;;;;;;;;5072728;28;20055;-86
2022/06/03 01:16:18;;;;;;;0.10;0.10;;;;;;;;;;5083680;27;20431;-89
2022/06/03 01:19:03;;;;;;;0.00;0.00;;;;;;;;;;5093946;28;20075;-88
2022/06/03 01:21:32;;;;;;;0.10;0.10;;;;;;;;;;5093351;28;20031;-87
2022/06/03 01:24:14;;;;;;;0.55;0.55;;;;;;;;;;5073895;28;20096;-87
2022/06/03 01:26:59;;;;;;;0.30;0.30;;;;;;;;;;5077512;27;20047;-88
2022/06/03 01:29:51;;;;;;;0.10;0.10;;;;;;;;;;5075245;28;20059;-87
2022/06/03 01:32:36;;;;;;;0.10;0.10;;;;;;;;;;5049211;28;20048;-87
2022/06/03 01:35:13;;;;;;;0.10;0.10;;;;;;;;;;5078323;28;20127;-88
2022/06/03 01:37:48;;;;;;;0.10;0.10;;;;;;;;;;5075835;28;20810;-89
2022/06/03 01:40:20;;;;;;;0.10;0.10;;;;;;;;;;5075006;28;20144;-89
2022/06/03 01:43:05;;;;;;;0.10;0.10;;;;;;;;;;5073528;27;20047;-88
2022/06/03 01:45:46;;;;;;;0.10;0.10;;;;;;;;;;5073379;28;20082;-87
2022/06/03 01:48:27;;;;;;;0.10;0.10;;;;;;;;;;5107874;27;20112;-88
2022/06/03 01:51:00;;;;;;;0.00;0.00;;;;;;;;;;5076464;28;20039;-89
2022/06/03 01:53:38;;;;;;;0.10;0.10;;;;;;;;;;5072934;28;20050;-87
2022/06/03 01:56:36;;;;;;;0.00;0.00;;;;;;;;;;5076325;27;20392;-89
2022/06/03 01:59:02;;;;;;;0.10;0.10;;;;;;;;;;5039464;28;20567;-91
2022/06/03 02:01:49;;;;;;;0.10;0.10;;;;;;;;;;5077753;28;20070;-88
2022/06/03 02:04:15;;;;;;;0.10;0.10;;;;;;;;;;5074647;28;20036;-90
2022/06/03 02:07:00;;;;;;;0.10;0.10;;;;;;;;;;5075462;28;20044;-88
2022/06/03 02:09:38;;;;;;;0.10;0.10;;;;;;;;;;5091826;28;20036;-89
2022/06/03 02:12:11;;;;;;;0.10;0.10;;;;;;;;;;5090321;28;20043;-90
2022/06/03 02:14:53;;;;;;;0.00;0.00;;;;;;;;;;5075755;28;20039;-89
2022/06/03 02:17:22;;;;;;;0.03;0.03;;;;;;;;;;5077158;27;20063;-89
2022/06/03 02:20:07;;;;;;;0.00;0.00;;;;;;;;;;5074547;28;20353;-88
2022/06/03 02:22:50;;;;;;;0.03;0.03;;;;;;;;;;5073001;28;20040;-89
2022/06/03 02:25:35;;;;;;;0.00;0.00;;;;;;;;;;5076005;28;20102;-89
2022/06/03 02:28:23;;;;;;;0.10;0.10;;;;;;;;;;5074725;28;20071;-89
2022/06/03 02:30:55;;;;;;;0.03;0.03;;;;;;;;;;5072259;28;20338;-88
2022/06/03 02:33:27;;;;;;;0.10;0.10;;;;;;;;;;5071310;28;20050;-89
2022/06/03 02:36:03;;;;;;;0.00;0.00;;;;;;;;;;5091264;28;20043;-88
2022/06/03 02:38:43;;;;;;;0.00;0.00;;;;;;;;;;5075588;28;20054;-90
2022/06/03 02:41:28;;;;;;;0.10;0.10;;;;;;;;;;5074160;28;20051;-91
2022/06/03 02:43:54;;;;;;;0.00;0.00;;;;;;;;;;5074608;28;20424;-88
2022/06/03 02:46:23;;;;;;;0.10;0.08;;;;;;;;;;5075873;28;20142;-88
2022/06/03 02:49:15;;;;;;;0.10;0.10;;;;;;;;;;5074855;28;20078;-88
2022/06/03 02:51:56;;;;;;;0.10;0.10;;;;;;;;;;5070745;28;20888;-90
2022/06/03 02:54:45;;;;;;;0.00;0.00;;;;;;;;;;5090872;28;20043;-89
2022/06/03 02:57:11;;;;;;;0.10;0.10;;;;;;;;;;5043661;28;20444;-92
2022/06/03 02:59:53;;;;;;;0.00;0.00;;;;;;;;;;5091109;28;20062;-88
2022/06/03 03:02:38;;;;;;;0.03;0.03;;;;;;;;;;5089248;28;20126;-90
2022/06/03 03:05:04;;;;;;;0.10;0.10;;;;;;;;;;5074200;28;20054;-90
2022/06/03 03:07:48;;;;;;;0.00;0.00;;;;;;;;;;5075032;28;20043;-89
2022/06/03 03:10:33;;;;;;;0.00;0.00;;;;;;;;;;5091295;28;20042;-91
2022/06/03 03:13:11;;;;;;;0.00;0.00;;;;;;;;;;5073045;28;20052;-90
2022/06/03 03:15:43;;;;;;;0.10;0.10;;;;;;;;;;5089312;27;20490;-87
2022/06/03 03:18:15;;;;;;;0.10;0.10;;;;;;;;;;5076586;28;20039;-90
2022/06/03 03:21:00;;;;;;;0.10;0.10;;;;;;;;;;5090131;28;20036;-88
2022/06/03 03:23:26;;;;;;;0.10;0.10;;;;;;;;;;5090019;28;20078;-89
2022/06/03 03:26:11;;;;;;;0.00;0.00;;;;;;;;;;5091157;28;20032;-88
2022/06/03 03:28:49;;;;;;;0.13;0.13;;;;;;;;;;5088777;28;20367;-87
2022/06/03 03:31:35;;;;;;;0.47;0.47;;;;;;;;;;5088131;28;20162;-89
2022/06/03 03:34:01;;;;;;;0.10;0.10;;;;;;;;;;5072974;28;20048;-88
2022/06/03 03:36:45;;;;;;;0.10;0.10;;;;;;;;;;5091151;28;20132;-87
2022/06/03 03:39:11;;;;;;;0.10;0.10;;;;;;;;;;5091078;28;20039;-90
2022/06/03 03:41:37;;;;;;;0.10;0.10;;;;;;;;;;5073425;28;20048;-87
2022/06/03 03:44:03;;;;;;;0.20;0.20;;;;;;;;;;5074153;28;20168;-88
2022/06/03 03:46:44;;;;;;;0.10;0.10;;;;;;;;;;5083145;28;20126;-87
2022/06/03 03:49:17;;;;;;;0.10;0.10;;;;;;;;;;5075085;28;20105;-89
2022/06/03 03:51:52;;;;;;;0.00;0.00;;;;;;;;;;5089735;28;20055;-87
2022/06/03 03:54:25;;;;;;;0.10;0.10;;;;;;;;;;5075297;28;20043;-88
2022/06/03 03:57:10;;;;;;;0.10;0.10;;;;;;;;;;5088232;28;20040;-94
2022/06/03 03:59:36;;;;;;;0.10;0.10;;;;;;;;;;5074694;28;20552;-93
2022/06/03 04:02:41;;;;;;;0.10;0.10;;;;;;;;;;5090985;28;20573;-92
2022/06/03 04:05:07;;;;;;;;;;;;;;;;;;4975121;28;20046;-94
2022/06/03 04:07:48;;;;;;;0.10;0.10;;;;;;;;;;4992181;28;20282;-83
2022/06/03 04:10:41;;;;;;;0.10;0.10;;;;;;;;;;5035803;28;20573;-84
2022/06/03 04:13:31;;;;;;;0.10;0.10;;;;;;;;;;5095375;28;20441;-93
2022/06/03 04:16:16;;;;;;;0.10;0.10;;;;;;;;;;5076595;28;20039;-91
2022/06/03 04:18:45;;;;;;;0.85;0.85;;;;;;;;;;5093568;28;20055;-92
2022/06/03 04:21:11;;;;;;;0.10;0.10;;;;;;;;;;5077642;28;20478;-92
2022/06/03 04:24:07;;;;;;;0.10;0.10;;;;;;;;;;5079295;28;20596;-89
2022/06/03 04:26:42;;;;;;;0.10;0.10;;;;;;;;;;5092444;28;20066;-89
2022/06/03 04:29:34;;;;;;;0.10;0.10;;;;;;;;;;5091446;27;20131;-83
2022/06/03 04:32:12;;;;;;;0.03;0.03;;;;;;;;;;5075993;28;20440;-88
2022/06/03 04:34:57;;;;;;;0.10;0.10;;;;;;;;;;5076271;28;20491;-89
2022/06/03 04:37:42;;;;;;;0.00;0.00;;;;;;;;;;5074552;28;20130;-88
2022/06/03 04:40:33;;;;;;;0.10;0.10;;;;;;;;;;5090164;27;20104;-89
2022/06/03 04:43:02;;;;;;;0.10;0.10;;;;;;;;;;5090951;28;20096;-87
2022/06/03 04:45:46;;;;;;;0.25;0.25;;;;;;;;;;5092546;28;20127;-85
2022/06/03 04:48:19;;;;;;;0.00;0.00;;;;;;;;;;5091398;28;20051;-85
2022/06/03 04:51:00;;;;;;;0.10;0.10;;;;;;;;;;5075908;28;20067;-86
2022/06/03 04:53:29;;;;;;;0.20;0.20;;;;;;;;;;5076205;28;20517;-87
2022/06/03 04:56:04;;;;;;;0.13;0.13;;;;;;;;;;5092263;28;20043;-86
2022/06/03 04:58:49;;;;;;;0.10;0.10;;;;;;;;;;5094924;28;20483;-84
2022/06/03 05:01:49;;;;;;;0.10;0.10;;;;;;;;;;5096668;27;20044;-87
2022/06/03 05:04:33;;;;;;;0.20;0.20;;;;;;;;;;5077757;28;20058;-86
2022/06/03 05:07:06;;;;;;;0.00;0.00;;;;;;;;;;5078597;28;20593;-87
2022/06/03 05:09:51;;;;;;;2.08;1.17;;;;;;;;;;5076484;28;20074;-87
2022/06/03 05:12:20;;;;;;;0.10;0.10;;;;;;;;;;5093069;28;20043;-87
2022/06/03 05:14:46;;;;;;;0.20;0.20;;;;;;;;;;5093955;27;20092;-87
2022/06/03 05:17:15;;;;;;;0.63;0.63;;;;;;;;;;5076385;27;20041;-86
2022/06/03 05:19:59;;;;;;;0.10;0.10;;;;;;;;;;5074592;28;20115;-89
2022/06/03 05:22:35;;;;;;;0.00;0.00;;;;;;;;;;5093453;27;20039;-88
2022/06/03 05:25:11;;;;;;;0.65;0.65;;;;;;;;;;5092431;27;20044;-87
2022/06/03 05:27:37;;;;;;;0.20;0.20;;;;;;;;;;5075972;28;20100;-86
2022/06/03 05:30:12;;;;;;;0.10;0.10;;;;;;;;;;5076616;28;20050;-86
2022/06/03 05:32:56;;;;;;;0.10;0.10;;;;;;;;;;5077333;28;20113;-86
2022/06/03 05:35:35;;;;;;;0.10;0.10;;;;;;;;;;5109222;28;20039;-86
2022/06/03 05:38:16;;;;;;;0.10;0.10;;;;;;;;;;5075358;28;20103;-86
2022/06/03 05:40:56;;;;;;;0.10;0.10;;;;;;;;;;5093762;28;20093;-86
2022/06/03 05:43:38;;;;;;;0.30;0.30;;;;;;;;;;5077624;27;20483;-86
2022/06/03 05:46:30;;;;;;;0.20;0.10;;;;;;;;;;5076032;28;20428;-86
2022/06/03 05:49:02;;;;;;;0.10;0.10;;;;;;;;;;5042817;28;20530;-85
2022/06/03 05:51:31;;;;;;;0.10;0.10;;;;;;;;;;5077543;28;20594;-87
2022/06/03 05:54:24;;;;;;;0.10;0.10;;;;;;;;;;5076186;28;20444;-87
2022/06/03 05:57:01;;;;;;;0.10;0.10;;;;;;;;;;5086377;28;20420;-86
2022/06/03 05:59:46;;;;;;;0.10;0.10;;;;;;;;;;5087382;28;20406;-87
2022/06/03 06:02:19;;;;;;;0.10;0.10;;;;;;;;;;5105802;27;20529;-87
2022/06/03 06:04:45;;;;;;;;;;;;;;;;;;5088783;28;20501;-86
2022/06/03 06:07:11;;;;;;;;;;;;;;;;;;5074770;28;20003;-87
2022/06/03 06:09:43;;;;;;;;;;;;;;;;;;5089112;28;20439;-87
2022/06/03 06:12:09;;;;;;;;;;;;;;;;;;5073498;28;19920;-88
2022/06/03 06:14:35;;;;;;;;;;;;;;;;;;5089488;28;19935;-86
2022/06/03 06:17:01;;;;;;;;;;;;;;;;;;5088862;28;19920;-87
2022/06/03 06:19:27;;;;;;;;;;;;;;;;;;5087864;28;19920;-86
2022/06/03 06:21:53;;;;;;;;;;;;;;;;;;5073905;28;19924;-85
2022/06/03 06:24:19;;;;;;;;;;;;;;;;;;5089086;28;19935;-85
2022/06/03 06:26:45;;;;;;;;;;;;;;;;;;5071843;28;19925;-85
2022/06/03 06:29:11;;;;;;;;;;;;;;;;;;5071969;28;19959;-85
2022/06/03 06:31:38;;;;;;;;;;;;;;;;;;5072451;28;19966;-84
2022/06/03 06:34:04;;;;;;;;;;;;;;;;;;5072442;28;19927;-85
2022/06/03 06:36:30;;;;;;;;;;;;;;;;;;5069753;28;19919;-86
2022/06/03 06:38:55;;;;;;;;;;;;;;;;;;5074568;28;19919;-85
2022/06/03 06:41:22;;;;;;;;;;;;;;;;;;5072208;28;19920;-87
2022/06/03 06:43:47;;;;;;;;;;;;;;;;;;5071921;28;19930;-85
2022/06/03 06:46:13;;;;;;;;;;;;;;;;;;5071565;28;19928;-85
2022/06/03 06:48:39;;;;;;;;;;;;;;;;;;5073240;28;19931;-85
2022/06/03 06:51:05;;;;;;;;;;;;;;;;;;5072238;28;19971;-86
2022/06/03 06:53:31;;;;;;;;;;;;;;;;;;5073743;28;20399;-85
2022/06/03 06:55:58;;;;;;;;;;;;;;;;;;5088436;28;20313;-89
2022/06/03 06:58:24;;;;;;;;;;;;;;;;;;5086945;28;20082;-88
2022/06/03 07:00:50;;;;;;;;;;;;;;;;;;5089665;28;19919;-87
2022/06/03 07:03:16;;;;;;;;;;;;;;;;;;5071606;28;19977;-88
2022/06/03 07:05:43;;;;;;;;;;;;;;;;;;5086983;28;20355;-86
2022/06/03 07:08:09;;;;;;;;;;;;;;;;;;5072446;28;20011;-87
2022/06/03 07:10:35;;;;;;;;;;;;;;;;;;5085264;28;20023;-87
2022/06/03 07:13:01;;;;;;;;;;;;;;;;;;5087871;28;19920;-85
2022/06/03 07:15:27;;;;;;;;;;;;;;;;;;5072173;28;19923;-85
2022/06/03 07:20:37;;;;;;;;;;;;;;;;;;5087004;28;19920;-87
2022/06/03 07:23:03;;;;;;;;;;;;;;;;;;5071343;28;19924;-85
2022/06/03 07:25:30;;;;;;;;;;;;;;;;;;5088896;28;19965;-85
2022/06/03 07:27:56;;;;;;;;;;;;;;;;;;5067810;28;20657;-86
2022/06/03 07:30:22;;;;;;;;;;;;;;;;;;5069913;28;20412;-86
2022/06/03 07:32:48;;;;;;;;;;;;;;;;;;5070864;28;20584;-86
2022/06/03 07:35:14;;;;;;;;;;;;;;;;;;5071115;28;20026;-87
2022/06/03 07:37:40;;;;;;;;;;;;;;;;;;5072766;28;19978;-87
2022/06/03 07:40:06;;;;;;;;;;;;;;;;;;5069973;28;19946;-87
2022/06/03 07:42:32;;;;;;;;;;;;;;;;;;5086013;28;19928;-86
2022/06/03 07:44:58;;;;;;;;;;;;;;;;;;5070283;28;20381;-87
2022/06/03 07:47:24;;;;;;;;;;;;;;;;;;5068710;28;19932;-87
2022/06/03 07:49:50;;;;;;;;;;;;;;;;;;5069606;28;19920;-87
2022/06/03 07:52:16;;;;;;;;;;;;;;;;;;5087193;28;19920;-87
2022/06/03 07:54:42;;;;;;;;;;;;;;;;;;5073360;28;19932;-87
2022/06/03 07:57:08;;;;;;;;;;;;;;;;;;5072115;28;19928;-86
2022/06/03 07:59:34;;;;;;;;;;;;;;;;;;5070764;28;19924;-86
2022/06/03 08:02:00;;;;;;;;;;;;;;;;;;5090849;28;19924;-87
2022/06/03 08:04:26;;;;;;;;;;;;;;;;;;5071131;28;20391;-87
2022/06/03 08:12:21;;;;;;;;;;;;;;;;;;5085540;28;20365;-87
2022/06/03 08:14:47;;;;;;;;;;;;;;;;;;5087218;28;19924;-83
2022/06/03 08:17:13;;;;;;;;;;;;;;;;;;5086696;28;20011;-84
2022/06/03 08:19:40;;;;;;;;;;;;;;;;;;5085818;28;19920;-86
2022/06/03 08:22:08;;;;;;;;;;;;;;;;;;5086991;28;20332;-85
2022/06/03 08:24:34;;;;;;;;;;;;;;;;;;5072890;28;20339;-85
2022/06/03 08:27:00;;;;;;;;;;;;;;;;;;5087163;28;19927;-84
2022/06/03 08:29:26;;;;;;;;;;;;;;;;;;5070017;28;20393;-85
2022/06/03 08:31:52;;;;;;;;;;;;;;;;;;5086042;28;19959;-85
2022/06/03 08:34:18;;;;;;;;;;;;;;;;;;5070329;28;19919;-87
2022/06/03 08:36:43;;;;;;;;;;;;;;;;;;5088146;28;19924;-86
2022/06/03 08:39:09;;;;;;;;;;;;;;;;;;5088290;28;19920;-89
2022/06/03 08:41:36;;;;;;;;;;;;;;;;;;5088529;28;19920;-88
2022/06/03 08:44:02;;;;;;;;;;;;;;;;;;5070315;28;19970;-91
2022/06/03 08:46:28;;;;;;;;;;;;;;;;;;5070273;28;19920;-88
2022/06/03 08:48:54;;;;;;;;;;;;;;;;;;5065370;28;19924;-88
2022/06/03 08:51:20;;;;;;;;;;;;;;;;;;5087199;28;19928;-88
2022/06/03 08:53:46;;;;;;;;;;;;;;;;;;5092188;28;20383;-89
2022/06/03 08:56:12;;;;;;;;;;;;;;;;;;5075170;28;20355;-88
2022/06/03 08:58:38;;;;;;;;;;;;;;;;;;5077452;28;19926;-91
2022/06/03 09:01:04;;;;;;;;;;;;;;;;;;5080543;28;20056;-90
2022/06/03 09:03:29;;;;;;;;;;;;;;;;;;5079264;28;19920;-88
2022/06/03 09:05:55;;;;;;;;;;;;;;;;;;5106839;28;19928;-89
2022/06/03 09:08:21;;;;;;;;;;;;;;;;;;5077507;28;20365;-91
2022/06/03 09:10:48;;;;;;;;;;;;;;;;;;5113126;28;20400;-88
2022/06/03 09:13:14;;;;;;;;;;;;;;;;;;5078691;28;19998;-90
2022/06/03 09:15:40;;;;;;;;;;;;;;;;;;5096295;28;20282;-87
2022/06/03 09:18:06;;;;;;;;;;;;;;;;;;5079909;28;20361;-88
2022/06/03 09:20:32;;;;;;;;;;;;;;;;;;5095639;28;20306;-89
2022/06/03 09:22:58;;;;;;;;;;;;;;;;;;5095285;28;19938;-91
2022/06/03 09:25:24;;;;;;;;;;;;;;;;;;5094472;28;19946;-89
2022/06/03 09:27:51;;;;;;;;;;;;;;;;;;5080172;28;19920;-88
2022/06/03 09:30:17;;;;;;;;;;;;;;;;;;5077883;28;19934;-88
2022/06/03 09:32:49;;;;;;;;;;;;;;;;;;5091076;28;20327;-87
2022/06/03 09:35:15;;;;;;;;;;;;;;;;;;5095393;27;20285;-87
2022/06/03 09:37:41;;;;;;;;;;;;;;;;;;5078654;28;19915;-87
2022/06/03 09:40:07;;;;;;;;;;;;;;;;;;5094553;28;19927;-85
2022/06/03 09:42:33;;;;;;;;;;;;;;;;;;5078078;28;19924;-86
2022/06/03 09:44:59;;;;;;;;;;;;;;;;;;5078297;28;19920;-85
2022/06/03 09:47:25;;;;;;;;;;;;;;;;;;5094484;28;20022;-85
2022/06/03 09:49:51;;;;;;;;;;;;;;;;;;5094438;28;19919;-86
2022/06/03 09:52:17;;;;;;;;;;;;;;;;;;5078392;28;19919;-86
2022/06/03 09:54:43;;;;;;;;;;;;;;;;;;5078807;28;19930;-86
2022/06/03 09:57:09;;;;;;;;;;;;;;;;;;5095800;28;19919;-87
2022/06/03 09:59:35;;;;;;;;;;;;;;;;;;5093953;28;19927;-86
2022/06/03 10:02:01;;;;;;;;;;;;;;;;;;5094552;28;20011;-86
2022/06/03 10:04:27;;;;;;;;;;;;;;;;;;5078057;28;19969;-86
2022/06/03 10:06:53;;;;;;;;;;;;;;;;;;5077898;28;20204;-85
2022/06/03 10:15:37;;;;;;;;;;;;;;;;;;5092555;28;20012;-84
2022/06/03 10:17:34;;;;;;;;;;;;;;;;;;5090379;28;19926;-87
2022/06/03 10:20:00;;;;;;;;;;;;;;;;;;5094136;28;19924;-89
2022/06/03 10:22:26;;;;;;;;;;;;;;;;;;5092739;28;19919;-82
2022/06/03 10:24:52;;;;;;;;;;;;;;;;;;5125567;27;20023;-84
2022/06/03 10:27:20;;;;;;;;;;;;;;;;;;5094747;28;19985;-85
2022/06/03 10:29:46;;;;;;;;;;;;;;;;;;5077403;28;19920;-82
2022/06/03 10:32:14;;;;;;;;;;;;;;;;;;5091352;28;20370;-84
2022/06/03 10:34:39;;;;;;;;;;;;;;;;;;5092068;28;19920;-86
2022/06/03 10:37:05;;;;;;;;;;;;;;;;;;5075438;28;20369;-89
2022/06/03 10:39:31;;;;;;;;;;;;;;;;;;5079249;28;19980;-87
2022/06/03 10:41:58;;;;;;;;;;;;;;;;;;5093943;28;20000;-82
2022/06/03 10:44:24;;;;;;;;;;;;;;;;;;5112454;28;19920;-90
2022/06/03 10:46:50;;;;;;;;;;;;;;;;;;5096643;28;19973;-85
2022/06/03 10:49:16;;;;;;;;;;;;;;;;;;5094412;28;19924;-83
2022/06/03 11:02:43;;;;;;;;;;;;;;;;;;5117506;27;19930;-81
2022/06/03 11:05:09;;;;;;;;;;;;;;;;;;5095209;28;19924;-90
2022/06/03 11:07:36;;;;;;;;;;;;;;;;;;5099152;28;19932;-82
2022/06/03 11:10:03;;;;;;;;;;;;;;;;;;5088580;28;20329;-85
2022/06/03 11:12:29;;;;;;;;;;;;;;;;;;5089479;28;19972;-85
2022/06/03 11:14:55;;;;;;;;;;;;;;;;;;5090556;27;19927;-85
2022/06/03 11:17:21;;;;;;;;;;;;;;;;;;5095662;28;19987;-83
2022/06/03 11:19:47;;;;;;;;;;;;;;;;;;5090026;28;20290;-86
2022/06/03 11:22:13;;;;;;;;;;;;;;;;;;5081546;28;19935;-85
2022/06/03 11:24:39;;;;;;;;;;;;;;;;;;5093509;28;19924;-83
2022/06/03 11:27:05;;;;;;;;;;;;;;;;;;5092181;28;20027;-83
2022/06/03 11:29:31;;;;;;;;;;;;;;;;;;5072935;28;19927;-83
2022/06/03 11:31:57;;;;;;;;;;;;;;;;;;5089871;28;19936;-88
2022/06/03 11:34:23;;;;;;;;;;;;;;;;;;5075764;28;19981;-89
2022/06/03 11:36:49;;;;;;;;;;;;;;;;;;5090632;28;20052;-86
2022/06/03 11:39:15;;;;;;;;;;;;;;;;;;5074954;28;19935;-89
2022/06/03 11:41:41;;;;;;;;;;;;;;;;;;5100553;28;19932;-87
2022/06/03 11:44:08;;;;;;;;;;;;;;;;;;5102172;28;19927;-89
2022/06/03 11:46:34;;;;;;;;;;;;;;;;;;5098733;28;19963;-87
2022/06/03 11:49:00;;;;;;;;;;;;;;;;;;5118754;27;19924;-86
2022/06/03 11:51:26;;;;;;;;;;;;;;;;;;5108013;28;19938;-89
2022/06/03 11:53:52;;;;;;;;;;;;;;;;;;5070952;28;20014;-88
2022/06/03 11:56:18;;;;;;;;;;;;;;;;;;5091441;28;19930;-88
2022/06/03 11:58:45;;;;;;;;;;;;;;;;;;5091823;28;19924;-90
2022/06/03 12:01:11;;;;;;;;;;;;;;;;;;5075789;28;19946;-89
2022/06/03 12:03:37;;;;;;;;;;;;;;;;;;5120727;28;20015;-87
2022/06/03 12:06:03;;;;;;;;;;;;;;;;;;5089002;28;20414;-88
2022/06/03 12:08:29;;;;;;;;;;;;;;;;;;5091192;28;19928;-93
2022/06/03 12:10:55;;;;;;;;;;;;;;;;;;5092362;28;19936;-92
2022/06/03 12:13:26;;;;;;;;;;;;;;;;;;5076416;28;19980;-90
2022/06/03 12:15:52;;;;;;;;;;;;;;;;;;5076684;28;19938;-90
2022/06/03 12:18:18;;;;;;;;;;;;;;;;;;5074718;28;20014;-89
2022/06/03 12:20:48;;;;;;;;;;;;;;;;;;5100862;28;20020;-88
2022/06/03 12:23:14;;;;;;;;;;;;;;;;;;5099535;28;20170;-88
2022/06/03 12:25:40;;;;;;;;;;;;;;;;;;5095452;28;19924;-91
2022/06/03 12:28:06;;;;;;;;;;;;;;;;;;5110669;28;19980;-92
2022/06/03 12:30:32;;;;;;;;;;;;;;;;;;5081505;28;20025;-90
2022/06/03 12:32:58;;;;;;;;;;;;;;;;;;5080573;28;19957;-91
2022/06/03 12:35:24;;;;;;;;;;;;;;;;;;5096168;27;20317;-91
2022/06/03 12:37:50;;;;;;;;;;;;;;;;;;5108564;27;19924;-90
2022/06/03 12:40:16;;;;;;;;;;;;;;;;;;5096913;27;20297;-90
2022/06/03 12:42:44;;;;;;;;;;;;;;;;;;5079721;27;19935;-92
2022/06/03 12:45:13;;;;;;;;;;;;;;;;;;5080493;27;19939;-90
2022/06/03 12:47:39;;;;;;;;;;;;;;;;;;5079775;27;20430;-92
2022/06/03 12:50:05;;;;;;;;;;;;;;;;;;5096920;28;20087;-91
2022/06/03 12:52:34;;;;;;;;;;;;;;;;;;5097905;28;20343;-91
2022/06/03 12:55:00;;;;;;;;;;;;;;;;;;5094143;27;19924;-90
2022/06/03 12:57:26;;;;;;;;;;;;;;;;;;5078298;28;20278;-90
2022/06/03 12:59:52;;;;;;;;;;;;;;;;;;5112612;28;19924;-93
2022/06/03 13:02:18;;;;;;;;;;;;;;;;;;5079815;28;20351;-88
2022/06/03 13:04:44;;;;;;;;;;;;;;;;;;5080111;27;20358;-88
2022/06/03 13:07:10;;;;;;;;;;;;;;;;;;5079013;28;19939;-91
2022/06/03 13:09:36;;;;;;;;;;;;;;;;;;5079116;27;19949;-81
2022/06/03 13:12:02;;;;;;;;;;;;;;;;;;5095169;27;19924;-84
2022/06/03 13:14:28;;;;;;;;;;;;;;;;;;5092468;28;20002;-85
2022/06/03 13:16:54;;;;;;;;;;;;;;;;;;5104734;28;20294;-82
2022/06/03 13:19:23;;;;;;;;;;;;;;;;;;5078523;28;20014;-82
2022/06/03 13:21:49;;;;;;;;;;;;;;;;;;5093082;28;19924;-83
2022/06/03 13:24:15;;;;;;;;;;;;;;;;;;5091237;27;19928;-83
2022/06/03 13:26:41;;;;;;;;;;;;;;;;;;5095607;28;20371;-84
2022/06/03 13:29:07;;;;;;;;;;;;;;;;;;5091960;27;20355;-84
2022/06/03 13:31:33;;;;;;;;;;;;;;;;;;5074948;28;19971;-83
2022/06/03 13:33:59;;;;;;;;;;;;;;;;;;5107256;27;19962;-86
2022/06/03 13:36:25;;;;;;;;;;;;;;;;;;5109153;28;19924;-86
2022/06/03 13:38:51;;;;;;;;;;;;;;;;;;5075620;28;19924;-81
2022/06/03 13:44:02;;;;;;;;;;;;;;;;;;5116895;27;19935;-85
2022/06/03 13:46:28;;;;;;;;;;;;;;;;;;5094451;28;19924;-84
2022/06/03 13:48:54;;;;;;;;;;;;;;;;;;5094964;28;19931;-84
2022/06/03 13:51:20;;;;;;;;;;;;;;;;;;5078337;28;20413;-83
2022/06/03 13:53:46;;;;;;;;;;;;;;;;;;5093157;28;20305;-82
2022/06/03 13:56:11;;;;;;;;;;;;;;;;;;5094788;28;20311;-83
2022/06/03 13:58:37;;;;;;;;;;;;;;;;;;5128652;27;20367;-85
2022/06/03 14:01:03;;;;;;;;;;;;;;;;;;5092619;28;20376;-84
2022/06/03 14:03:29;;;;;;;;;;;;;;;;;;5093472;28;19928;-82
2022/06/03 14:05:56;;;;;;;;;;;;;;;;;;5094344;28;20413;-83
2022/06/03 14:08:22;;;;;;;;;;;;;;;;;;5078767;28;19924;-82
2022/06/03 14:10:49;;;;;;;;;;;;;;;;;;5087386;28;19977;-82
2022/06/03 14:13:15;;;;;;;;;;;;;;;;;;5084961;28;19928;-84
2022/06/03 14:15:41;;;;;;;;;;;;;;;;;;5077590;28;20008;-85
2022/06/03 14:18:07;;;;;;;;;;;;;;;;;;5088756;28;19970;-82
2022/06/03 14:20:33;;;;;;;;;;;;;;;;;;5111053;28;19939;-78
2022/06/03 14:22:59;;;;;;;;;;;;;;;;;;5094152;27;19923;-83
2022/06/03 14:25:25;;;;;;;;;;;;;;;;;;5088137;28;19928;-81
2022/06/03 14:27:51;;;;;;;;;;;;;;;;;;5072484;27;20350;-80
2022/06/03 14:30:17;;;;;;;;;;;;;;;;;;5091136;28;19973;-91
2022/06/03 14:32:43;;;;;;;;;;;;;;;;;;5090687;27;20352;-81
2022/06/03 14:35:09;;;;;;;;;;;;;;;;;;5089085;28;20362;-81
2022/06/03 14:37:35;;;;;;;;;;;;;;;;;;5109863;27;20375;-85
2022/06/03 14:40:01;;;;;;;;;;;;;;;;;;5119983;27;20366;-92
2022/06/03 14:42:30;;;;;;;;;;;;;;;;;;5093508;27;19928;-88
2022/06/03 14:44:56;;;;;;;;;;;;;;;;;;5091454;28;19976;-86
2022/06/03 14:47:22;;;;;;;;;;;;;;;;;;5077586;28;20286;-85
2022/06/03 14:49:48;;;;;;;;;;;;;;;;;;5076875;28;19927;-88
2022/06/03 14:52:14;;;;;;;;;;;;;;;;;;5084844;27;19943;-88
2022/06/03 14:54:46;;;;;;;;;;;;;;;;;;5095389;28;19974;-89
2022/06/03 14:57:12;;;;;;;;;;;;;;;;;;5107158;27;19971;-92
2022/06/03 14:59:38;;;;;;;;;;;;;;;;;;5098089;28;19931;-87
2022/06/03 15:02:04;;;;;;;;;;;;;;;;;;5106201;27;19927;-85
2022/06/03 15:04:30;;;;;;;;;;;;;;;;;;5122835;27;19931;-88
2022/06/03 15:06:56;;;;;;;;;;;;;;;;;;5092506;28;19924;-87
2022/06/03 15:09:22;;;;;;;;;;;;;;;;;;5094229;28;19932;-85
2022/06/03 15:11:48;;;;;;;;;;;;;;;;;;5094566;28;20293;-85
2022/06/03 15:14:14;;;;;;;;;;;;;;;;;;5088439;28;19928;-87
2022/06/03 15:16:41;;;;;;;;;;;;;;;;;;5105646;28;19928;-84
2022/06/03 15:19:07;;;;;;;;;;;;;;;;;;5074513;28;20290;-86
2022/06/03 15:21:34;;;;;;;;;;;;;;;;;;5093504;28;19924;-85
2022/06/03 15:24:00;;;;;;;;;;;;;;;;;;5074550;28;19949;-85
2022/06/03 15:26:26;;;;;;;;;;;;;;;;;;5091672;28;19964;-86
2022/06/03 15:28:52;;;;;;;;;;;;;;;;;;5090341;28;19931;-85
2022/06/03 15:31:18;;;;;;;;;;;;;;;;;;5092815;28;19932;-84
2022/06/03 15:33:44;;;;;;;;;;;;;;;;;;5075508;28;19923;-84
2022/06/03 15:36:10;;;;;;;;;;;;;;;;;;5092873;28;20485;-83
2022/06/03 15:38:36;;;;;;;;;;;;;;;;;;5074402;28;19932;-81
2022/06/03 15:41:02;;;;;;;;;;;;;;;;;;5072953;28;19927;-81
2022/06/03 15:43:28;;;;;;;;;;;;;;;;;;5090972;28;19928;-84
2022/06/03 15:45:54;;;;;;;;;;;;;;;;;;5088811;28;20277;-83
2022/06/03 15:48:20;;;;;;;;;;;;;;;;;;5077845;28;19946;-89
2022/06/03 15:50:47;;;;;;;;;;;;;;;;;;5098573;28;20027;-86
2022/06/03 15:53:13;;;;;;;;;;;;;;;;;;5081364;28;19974;-88
2022/06/03 15:55:39;;;;;;;;;;;;;;;;;;5098292;28;19925;-84
2022/06/03 15:58:05;;;;;;;;;;;;;;;;;;5070129;28;19924;-85
2022/06/03 16:00:31;;;;;;;;;;;;;;;;;;5110022;28;20371;-88
2022/06/03 16:02:57;;;;;;;;;;;;;;;;;;5117681;28;19935;-93
2022/06/03 16:05:23;;;;;;;;;;;;;;;;;;5099862;28;19923;-89
2022/06/03 16:07:49;;;;;;;;;;;;;;;;;;5098441;27;19924;-89
2022/06/03 16:10:15;;;;;;;;;;;;;;;;;;5095679;28;19952;-89
2022/06/03 16:12:42;;;;;;;;;;;;;;;;;;5116565;28;19908;-91
2022/06/03 16:15:11;;;;;;;;;;;;;;;;;;5103135;28;20384;-92
2022/06/03 16:17:37;;;;;;;;;;;;;;;;;;5105380;28;19908;-94
2022/06/03 16:20:06;;;;;;;;;;;;;;;;;;5104412;28;19927;-92
2022/06/03 16:22:32;;;;;;;;;;;;;;;;;;5104367;28;19924;-90
2022/06/03 16:24:58;;;;;;;;;;;;;;;;;;5097772;28;19946;-86
2022/06/03 16:27:24;;;;;;;;;;;;;;;;;;5097705;28;20390;-87
2022/06/03 16:29:50;;;;;;;;;;;;;;;;;;5080841;28;19977;-86
2022/06/03 16:32:16;;;;;;;;;;;;;;;;;;5101856;27;20022;-82
2022/06/03 16:34:42;;;;;;;;;;;;;;;;;;5125729;27;19939;-82
2022/06/03 16:37:08;;;;;;;;;;;;;;;;;;5079793;27;20256;-83
2022/06/03 16:39:34;;;;;;;;;;;;;;;;;;5078650;27;19936;-82
2022/06/03 16:42:00;;;;;;;;;;;;;;;;;;5090712;27;19931;-83
2022/06/03 16:44:26;;;;;;;;;;;;;;;;;;5078113;28;19967;-85
2022/06/03 16:46:54;;;;;;;;;;;;;;;;;;5096017;27;20268;-86
2022/06/03 16:49:20;;;;;;;;;;;;;;;;;;5092903;27;20046;-82